sensor_id;sensor_type;location;lat;lon;timestamp;P1;durP1;ratioP1;P2;durP2;ratioP2
68449;SDS011;67758;39.572;2.652;2023-02-28T00:00:11;4.38;;;1.05;;
68449;SDS011;67758;39.572;2.652;2023-02-28T00:02:38;4.70;;;1.02;;
68449;SDS011;67758;39.572;2.652;2023-02-28T00:05:05;4.00;;;0.60;;
68449;SDS011;67758;39.572;2.652;2023-02-28T00:07:33;4.97;;;0.70;;
68449;SDS011;67758;39.572;2.652;2023-02-28T00:09:59;6.70;;;1.15;;
68449;SDS011;67758;39.572;2.652;2023-02-28T00:12:25;6.75;;;1.08;;
68449;SDS011;67758;39.572;2.652;2023-02-28T00:14:51;7.63;;;1.10;;
68449;SDS011;67758;39.572;2.652;2023-02-28T00:17:17;4.77;;;0.93;;
68449;SDS011;67758;39.572;2.652;2023-02-28T00:19:46;4.85;;;0.82;;
68449;SDS011;67758;39.572;2.652;2023-02-28T00:22:13;5.13;;;0.80;;
68449;SDS011;67758;39.572;2.652;2023-02-28T00:24:40;9.85;;;1.35;;
68449;SDS011;67758;39.572;2.652;2023-02-28T00:27:06;7.60;;;0.90;;
68449;SDS011;67758;39.572;2.652;2023-02-28T00:29:32;5.97;;;1.27;;
68449;SDS011;67758;39.572;2.652;2023-02-28T00:31:57;5.43;;;1.03;;
68449;SDS011;67758;39.572;2.652;2023-02-28T00:34:23;6.27;;;1.07;;
68449;SDS011;67758;39.572;2.652;2023-02-28T00:36:48;6.22;;;1.00;;
68449;SDS011;67758;39.572;2.652;2023-02-28T00:39:14;5.80;;;1.20;;
68449;SDS011;67758;39.572;2.652;2023-02-28T00:41:40;5.20;;;0.70;;
68449;SDS011;67758;39.572;2.652;2023-02-28T00:44:05;8.57;;;1.50;;
68449;SDS011;67758;39.572;2.652;2023-02-28T00:46:31;5.53;;;1.23;;
68449;SDS011;67758;39.572;2.652;2023-02-28T00:48:56;7.70;;;1.77;;
68449;SDS011;67758;39.572;2.652;2023-02-28T00:51:22;7.83;;;1.10;;
68449;SDS011;67758;39.572;2.652;2023-02-28T00:53:48;8.57;;;1.63;;
68449;SDS011;67758;39.572;2.652;2023-02-28T00:56:13;7.60;;;1.10;;
68449;SDS011;67758;39.572;2.652;2023-02-28T00:58:39;8.50;;;1.30;;
68449;SDS011;67758;39.572;2.652;2023-02-28T01:01:05;4.88;;;0.88;;
68449;SDS011;67758;39.572;2.652;2023-02-28T01:03:30;7.93;;;1.15;;
68449;SDS011;67758;39.572;2.652;2023-02-28T01:05:56;9.57;;;1.13;;
68449;SDS011;67758;39.572;2.652;2023-02-28T01:08:22;6.95;;;0.90;;
68449;SDS011;67758;39.572;2.652;2023-02-28T01:10:48;8.05;;;1.17;;
68449;SDS011;67758;39.572;2.652;2023-02-28T01:13:14;9.93;;;1.17;;
68449;SDS011;67758;39.572;2.652;2023-02-28T01:15:40;10.32;;;1.15;;
68449;SDS011;67758;39.572;2.652;2023-02-28T01:18:09;8.60;;;1.07;;
68449;SDS011;67758;39.572;2.652;2023-02-28T01:20:38;4.60;;;0.65;;
68449;SDS011;67758;39.572;2.652;2023-02-28T01:23:04;7.68;;;1.00;;
68449;SDS011;67758;39.572;2.652;2023-02-28T01:25:29;11.07;;;0.83;;
68449;SDS011;67758;39.572;2.652;2023-02-28T01:27:55;5.30;;;0.77;;
68449;SDS011;67758;39.572;2.652;2023-02-28T01:30:21;10.70;;;1.17;;
68449;SDS011;67758;39.572;2.652;2023-02-28T01:32:46;15.10;;;1.20;;
68449;SDS011;67758;39.572;2.652;2023-02-28T01:35:12;9.37;;;1.23;;
68449;SDS011;67758;39.572;2.652;2023-02-28T01:37:37;4.53;;;0.77;;
68449;SDS011;67758;39.572;2.652;2023-02-28T01:40:03;2.90;;;0.55;;
68449;SDS011;67758;39.572;2.652;2023-02-28T01:42:29;6.32;;;1.23;;
68449;SDS011;67758;39.572;2.652;2023-02-28T01:47:40;7.25;;;1.00;;
68449;SDS011;67758;39.572;2.652;2023-02-28T01:50:09;6.93;;;1.05;;
68449;SDS011;67758;39.572;2.652;2023-02-28T01:52:38;9.40;;;1.50;;
68449;SDS011;67758;39.572;2.652;2023-02-28T01:55:05;9.93;;;1.20;;
68449;SDS011;67758;39.572;2.652;2023-02-28T01:57:37;9.45;;;1.75;;
68449;SDS011;67758;39.572;2.652;2023-02-28T02:00:08;11.45;;;1.40;;
68449;SDS011;67758;39.572;2.652;2023-02-28T02:02:36;10.65;;;1.40;;
68449;SDS011;67758;39.572;2.652;2023-02-28T02:05:04;10.53;;;1.20;;
68449;SDS011;67758;39.572;2.652;2023-02-28T02:07:37;10.30;;;1.38;;
68449;SDS011;67758;39.572;2.652;2023-02-28T02:13:05;9.38;;;1.23;;
68449;SDS011;67758;39.572;2.652;2023-02-28T02:15:41;8.43;;;1.60;;
68449;SDS011;67758;39.572;2.652;2023-02-28T02:18:30;4.73;;;0.80;;
68449;SDS011;67758;39.572;2.652;2023-02-28T02:29:30;4.68;;;0.90;;
68449;SDS011;67758;39.572;2.652;2023-02-28T02:37:37;7.68;;;1.23;;
68449;SDS011;67758;39.572;2.652;2023-02-28T02:40:21;7.40;;;1.20;;
68449;SDS011;67758;39.572;2.652;2023-02-28T02:48:04;6.93;;;1.50;;
68449;SDS011;67758;39.572;2.652;2023-02-28T02:50:35;7.80;;;1.38;;
68449;SDS011;67758;39.572;2.652;2023-02-28T02:53:04;6.95;;;0.93;;
68449;SDS011;67758;39.572;2.652;2023-02-28T02:55:32;3.85;;;0.80;;
68449;SDS011;67758;39.572;2.652;2023-02-28T02:58:11;8.13;;;1.23;;
68449;SDS011;67758;39.572;2.652;2023-02-28T03:00:51;4.18;;;0.68;;
68449;SDS011;67758;39.572;2.652;2023-02-28T03:03:23;8.43;;;1.30;;
68449;SDS011;67758;39.572;2.652;2023-02-28T03:05:58;4.35;;;0.70;;
68449;SDS011;67758;39.572;2.652;2023-02-28T03:08:25;1.42;;;0.20;;
68449;SDS011;67758;39.572;2.652;2023-02-28T03:10:57;5.10;;;0.90;;
68449;SDS011;67758;39.572;2.652;2023-02-28T03:16:20;8.13;;;1.15;;
68449;SDS011;67758;39.572;2.652;2023-02-28T03:19:08;3.33;;;0.60;;
68449;SDS011;67758;39.572;2.652;2023-02-28T03:21:53;4.10;;;0.70;;
68449;SDS011;67758;39.572;2.652;2023-02-28T03:24:49;4.33;;;0.40;;
68449;SDS011;67758;39.572;2.652;2023-02-28T03:27:31;2.10;;;0.28;;
68449;SDS011;67758;39.572;2.652;2023-02-28T03:30:14;4.03;;;0.55;;
68449;SDS011;67758;39.572;2.652;2023-02-28T03:35:48;6.20;;;0.40;;
68449;SDS011;67758;39.572;2.652;2023-02-28T03:38:27;4.03;;;0.33;;
68449;SDS011;67758;39.572;2.652;2023-02-28T03:41:21;5.40;;;0.60;;
68449;SDS011;67758;39.572;2.652;2023-02-28T03:43:59;1.48;;;0.10;;
68449;SDS011;67758;39.572;2.652;2023-02-28T03:46:31;0.90;;;0.10;;
68449;SDS011;67758;39.572;2.652;2023-02-28T03:49:09;2.17;;;0.15;;
68449;SDS011;67758;39.572;2.652;2023-02-28T03:51:49;7.47;;;0.20;;
68449;SDS011;67758;39.572;2.652;2023-02-28T03:54:25;2.90;;;0.20;;
68449;SDS011;67758;39.572;2.652;2023-02-28T03:59:50;4.95;;;0.22;;
68449;SDS011;67758;39.572;2.652;2023-02-28T04:02:21;1.40;;;0.20;;
68449;SDS011;67758;39.572;2.652;2023-02-28T04:04:47;2.13;;;0.10;;
68449;SDS011;67758;39.572;2.652;2023-02-28T04:07:13;1.35;;;0.10;;
68449;SDS011;67758;39.572;2.652;2023-02-28T04:09:39;2.42;;;0.25;;
68449;SDS011;67758;39.572;2.652;2023-02-28T04:12:05;1.07;;;0.10;;
68449;SDS011;67758;39.572;2.652;2023-02-28T04:14:31;0.85;;;0.10;;
68449;SDS011;67758;39.572;2.652;2023-02-28T04:16:56;1.47;;;0.10;;
68449;SDS011;67758;39.572;2.652;2023-02-28T04:19:22;0.40;;;0.00;;
68449;SDS011;67758;39.572;2.652;2023-02-28T04:21:49;3.57;;;0.10;;
68449;SDS011;67758;39.572;2.652;2023-02-28T04:24:20;0.25;;;0.00;;
68449;SDS011;67758;39.572;2.652;2023-02-28T04:26:50;0.30;;;0.00;;
68449;SDS011;67758;39.572;2.652;2023-02-28T04:29:19;0.40;;;0.00;;
68449;SDS011;67758;39.572;2.652;2023-02-28T04:31:46;1.27;;;0.00;;
68449;SDS011;67758;39.572;2.652;2023-02-28T04:34:12;0.63;;;0.10;;
68449;SDS011;67758;39.572;2.652;2023-02-28T04:36:37;1.70;;;0.00;;
68449;SDS011;67758;39.572;2.652;2023-02-28T04:39:03;1.55;;;0.08;;
68449;SDS011;67758;39.572;2.652;2023-02-28T04:41:29;2.53;;;0.10;;
68449;SDS011;67758;39.572;2.652;2023-02-28T04:43:55;0.52;;;0.00;;
68449;SDS011;67758;39.572;2.652;2023-02-28T04:46:21;1.33;;;0.00;;
68449;SDS011;67758;39.572;2.652;2023-02-28T04:48:47;1.63;;;0.03;;
68449;SDS011;67758;39.572;2.652;2023-02-28T04:51:13;0.70;;;0.03;;
68449;SDS011;67758;39.572;2.652;2023-02-28T04:53:40;1.17;;;0.20;;
68449;SDS011;67758;39.572;2.652;2023-02-28T04:56:07;0.40;;;0.00;;
68449;SDS011;67758;39.572;2.652;2023-02-28T04:58:33;0.60;;;0.00;;
68449;SDS011;67758;39.572;2.652;2023-02-28T05:01:06;0.17;;;0.00;;
68449;SDS011;67758;39.572;2.652;2023-02-28T05:03:42;0.00;;;0.00;;
68449;SDS011;67758;39.572;2.652;2023-02-28T05:06:08;1.10;;;0.00;;
68449;SDS011;67758;39.572;2.652;2023-02-28T05:08:35;2.20;;;0.10;;
68449;SDS011;67758;39.572;2.652;2023-02-28T05:11:01;1.67;;;0.10;;
68449;SDS011;67758;39.572;2.652;2023-02-28T05:13:28;0.15;;;0.00;;
68449;SDS011;67758;39.572;2.652;2023-02-28T05:15:54;1.52;;;0.08;;
68449;SDS011;67758;39.572;2.652;2023-02-28T05:18:20;0.60;;;0.03;;
68449;SDS011;67758;39.572;2.652;2023-02-28T05:20:46;0.30;;;0.00;;
68449;SDS011;67758;39.572;2.652;2023-02-28T05:23:12;0.70;;;0.00;;
68449;SDS011;67758;39.572;2.652;2023-02-28T05:25:38;0.70;;;0.00;;
68449;SDS011;67758;39.572;2.652;2023-02-28T05:28:05;0.50;;;0.00;;
68449;SDS011;67758;39.572;2.652;2023-02-28T05:30:31;0.05;;;0.00;;
68449;SDS011;67758;39.572;2.652;2023-02-28T05:32:57;0.97;;;0.00;;
68449;SDS011;67758;39.572;2.652;2023-02-28T05:35:23;0.75;;;0.10;;
68449;SDS011;67758;39.572;2.652;2023-02-28T05:37:51;0.40;;;0.00;;
68449;SDS011;67758;39.572;2.652;2023-02-28T05:40:17;3.00;;;0.10;;
68449;SDS011;67758;39.572;2.652;2023-02-28T05:42:45;0.10;;;0.00;;
68449;SDS011;67758;39.572;2.652;2023-02-28T05:45:11;1.20;;;0.05;;
68449;SDS011;67758;39.572;2.652;2023-02-28T05:47:38;0.10;;;0.00;;
68449;SDS011;67758;39.572;2.652;2023-02-28T05:50:04;0.68;;;0.00;;
68449;SDS011;67758;39.572;2.652;2023-02-28T05:52:31;2.53;;;0.10;;
68449;SDS011;67758;39.572;2.652;2023-02-28T05:54:57;1.53;;;0.10;;
68449;SDS011;67758;39.572;2.652;2023-02-28T05:57:22;0.47;;;0.00;;
68449;SDS011;67758;39.572;2.652;2023-02-28T05:59:49;3.13;;;0.15;;
68449;SDS011;67758;39.572;2.652;2023-02-28T06:02:15;2.17;;;0.10;;
68449;SDS011;67758;39.572;2.652;2023-02-28T06:04:42;2.17;;;0.10;;
68449;SDS011;67758;39.572;2.652;2023-02-28T06:07:09;0.88;;;0.10;;
68449;SDS011;67758;39.572;2.652;2023-02-28T06:09:35;2.73;;;0.40;;
68449;SDS011;67758;39.572;2.652;2023-02-28T06:12:02;4.90;;;0.30;;
68449;SDS011;67758;39.572;2.652;2023-02-28T06:14:31;4.88;;;0.13;;
68449;SDS011;67758;39.572;2.652;2023-02-28T06:16:57;2.40;;;0.28;;
68449;SDS011;67758;39.572;2.652;2023-02-28T06:19:23;1.20;;;0.15;;
68449;SDS011;67758;39.572;2.652;2023-02-28T06:21:54;1.70;;;0.10;;
68449;SDS011;67758;39.572;2.652;2023-02-28T06:41:40;0.90;;;0.10;;
68449;SDS011;67758;39.572;2.652;2023-02-28T06:44:18;2.40;;;0.10;;
68449;SDS011;67758;39.572;2.652;2023-02-28T06:46:49;1.13;;;0.10;;
68449;SDS011;67758;39.572;2.652;2023-02-28T06:49:15;2.53;;;0.27;;
68449;SDS011;67758;39.572;2.652;2023-02-28T06:51:43;1.80;;;0.10;;
68449;SDS011;67758;39.572;2.652;2023-02-28T06:54:10;0.63;;;0.10;;
68449;SDS011;67758;39.572;2.652;2023-02-28T06:56:36;4.60;;;0.20;;
68449;SDS011;67758;39.572;2.652;2023-02-28T06:59:02;2.60;;;0.28;;
68449;SDS011;67758;39.572;2.652;2023-02-28T07:01:28;3.35;;;0.30;;
68449;SDS011;67758;39.572;2.652;2023-02-28T07:03:54;0.30;;;0.00;;
68449;SDS011;67758;39.572;2.652;2023-02-28T07:06:20;1.57;;;0.10;;
68449;SDS011;67758;39.572;2.652;2023-02-28T07:08:50;1.55;;;0.10;;
68449;SDS011;67758;39.572;2.652;2023-02-28T07:11:18;0.98;;;0.05;;
68449;SDS011;67758;39.572;2.652;2023-02-28T07:13:44;2.05;;;0.20;;
68449;SDS011;67758;39.572;2.652;2023-02-28T07:16:11;3.50;;;0.23;;
68449;SDS011;67758;39.572;2.652;2023-02-28T07:18:37;3.70;;;0.20;;
68449;SDS011;67758;39.572;2.652;2023-02-28T07:21:04;1.52;;;0.30;;
68449;SDS011;67758;39.572;2.652;2023-02-28T07:23:31;1.77;;;0.20;;
68449;SDS011;67758;39.572;2.652;2023-02-28T07:25:57;2.65;;;0.10;;
68449;SDS011;67758;39.572;2.652;2023-02-28T07:28:22;2.40;;;0.20;;
68449;SDS011;67758;39.572;2.652;2023-02-28T07:30:48;2.58;;;0.20;;
68449;SDS011;67758;39.572;2.652;2023-02-28T07:33:14;2.27;;;0.13;;
68449;SDS011;67758;39.572;2.652;2023-02-28T07:35:39;2.67;;;0.20;;
68449;SDS011;67758;39.572;2.652;2023-02-28T07:38:05;5.63;;;0.60;;
68449;SDS011;67758;39.572;2.652;2023-02-28T07:40:41;5.68;;;0.40;;
68449;SDS011;67758;39.572;2.652;2023-02-28T07:43:44;2.92;;;0.60;;
68449;SDS011;67758;39.572;2.652;2023-02-28T07:46:12;6.72;;;0.40;;
68449;SDS011;67758;39.572;2.652;2023-02-28T07:48:42;3.22;;;0.22;;
68449;SDS011;67758;39.572;2.652;2023-02-28T07:51:08;3.03;;;0.60;;
68449;SDS011;67758;39.572;2.652;2023-02-28T07:53:34;2.75;;;0.32;;
68449;SDS011;67758;39.572;2.652;2023-02-28T07:56:00;2.45;;;0.40;;
68449;SDS011;67758;39.572;2.652;2023-02-28T07:58:28;2.70;;;0.30;;
68449;SDS011;67758;39.572;2.652;2023-02-28T08:00:55;6.72;;;0.80;;
68449;SDS011;67758;39.572;2.652;2023-02-28T08:03:22;2.25;;;0.32;;
68449;SDS011;67758;39.572;2.652;2023-02-28T08:05:48;4.28;;;0.40;;
68449;SDS011;67758;39.572;2.652;2023-02-28T08:08:15;11.52;;;0.80;;
68449;SDS011;67758;39.572;2.652;2023-02-28T08:10:42;8.40;;;0.90;;
68449;SDS011;67758;39.572;2.652;2023-02-28T08:13:08;7.43;;;1.35;;
68449;SDS011;67758;39.572;2.652;2023-02-28T08:15:34;8.05;;;0.93;;
68449;SDS011;67758;39.572;2.652;2023-02-28T08:18:01;5.32;;;0.40;;
68449;SDS011;67758;39.572;2.652;2023-02-28T08:20:27;9.07;;;0.57;;
68449;SDS011;67758;39.572;2.652;2023-02-28T08:22:52;8.98;;;0.90;;
68449;SDS011;67758;39.572;2.652;2023-02-28T08:25:18;10.13;;;0.90;;
68449;SDS011;67758;39.572;2.652;2023-02-28T08:27:44;10.07;;;1.00;;
68449;SDS011;67758;39.572;2.652;2023-02-28T08:30:11;11.07;;;0.90;;
68449;SDS011;67758;39.572;2.652;2023-02-28T08:32:38;4.07;;;0.50;;
68449;SDS011;67758;39.572;2.652;2023-02-28T08:35:04;9.40;;;0.77;;
68449;SDS011;67758;39.572;2.652;2023-02-28T08:37:30;11.25;;;0.90;;
68449;SDS011;67758;39.572;2.652;2023-02-28T08:39:56;3.83;;;0.40;;
68449;SDS011;67758;39.572;2.652;2023-02-28T08:42:21;8.45;;;0.98;;
68449;SDS011;67758;39.572;2.652;2023-02-28T08:44:49;7.40;;;0.65;;
68449;SDS011;67758;39.572;2.652;2023-02-28T08:47:15;6.67;;;0.90;;
68449;SDS011;67758;39.572;2.652;2023-02-28T08:49:41;6.93;;;0.80;;
68449;SDS011;67758;39.572;2.652;2023-02-28T08:52:06;15.60;;;1.40;;
68449;SDS011;67758;39.572;2.652;2023-02-28T08:54:32;9.70;;;1.13;;
68449;SDS011;67758;39.572;2.652;2023-02-28T08:56:59;6.85;;;0.85;;
68449;SDS011;67758;39.572;2.652;2023-02-28T08:59:25;5.03;;;0.73;;
68449;SDS011;67758;39.572;2.652;2023-02-28T09:01:51;10.47;;;0.90;;
68449;SDS011;67758;39.572;2.652;2023-02-28T09:04:16;8.20;;;1.02;;
68449;SDS011;67758;39.572;2.652;2023-02-28T09:06:42;8.40;;;1.30;;
68449;SDS011;67758;39.572;2.652;2023-02-28T09:09:07;9.73;;;1.20;;
68449;SDS011;67758;39.572;2.652;2023-02-28T09:11:34;10.60;;;0.73;;
68449;SDS011;67758;39.572;2.652;2023-02-28T09:14:00;10.55;;;1.05;;
68449;SDS011;67758;39.572;2.652;2023-02-28T09:16:30;11.05;;;0.95;;
68449;SDS011;67758;39.572;2.652;2023-02-28T09:18:57;3.97;;;0.63;;
68449;SDS011;67758;39.572;2.652;2023-02-28T09:21:22;4.53;;;0.57;;
68449;SDS011;67758;39.572;2.652;2023-02-28T09:23:49;6.80;;;0.87;;
68449;SDS011;67758;39.572;2.652;2023-02-28T09:26:19;6.22;;;0.85;;
68449;SDS011;67758;39.572;2.652;2023-02-28T09:28:47;9.02;;;0.88;;
68449;SDS011;67758;39.572;2.652;2023-02-28T09:31:14;9.57;;;1.00;;
68449;SDS011;67758;39.572;2.652;2023-02-28T09:33:46;10.85;;;1.20;;
68449;SDS011;67758;39.572;2.652;2023-02-28T09:36:15;6.80;;;1.13;;
68449;SDS011;67758;39.572;2.652;2023-02-28T09:38:41;7.00;;;1.00;;
68449;SDS011;67758;39.572;2.652;2023-02-28T09:41:12;9.18;;;0.82;;
68449;SDS011;67758;39.572;2.652;2023-02-28T09:43:40;7.67;;;0.73;;
68449;SDS011;67758;39.572;2.652;2023-02-28T09:46:29;10.63;;;0.73;;
68449;SDS011;67758;39.572;2.652;2023-02-28T09:48:56;8.90;;;0.98;;
68449;SDS011;67758;39.572;2.652;2023-02-28T09:54:18;6.05;;;0.52;;
68449;SDS011;67758;39.572;2.652;2023-02-28T09:56:51;8.50;;;1.07;;
68449;SDS011;67758;39.572;2.652;2023-02-28T10:06:44;5.68;;;0.70;;
68449;SDS011;67758;39.572;2.652;2023-02-28T10:09:27;6.68;;;0.50;;
68449;SDS011;67758;39.572;2.652;2023-02-28T10:11:59;14.00;;;1.63;;
68449;SDS011;67758;39.572;2.652;2023-02-28T10:14:29;6.47;;;1.10;;
68449;SDS011;67758;39.572;2.652;2023-02-28T10:17:02;9.93;;;1.30;;
68449;SDS011;67758;39.572;2.652;2023-02-28T10:19:42;8.70;;;1.23;;
68449;SDS011;67758;39.572;2.652;2023-02-28T10:24:51;11.30;;;1.20;;
68449;SDS011;67758;39.572;2.652;2023-02-28T10:27:19;9.52;;;1.40;;
68449;SDS011;67758;39.572;2.652;2023-02-28T10:29:52;9.43;;;1.45;;
68449;SDS011;67758;39.572;2.652;2023-02-28T10:32:24;8.75;;;1.05;;
68449;SDS011;67758;39.572;2.652;2023-02-28T10:34:55;6.82;;;1.00;;
68449;SDS011;67758;39.572;2.652;2023-02-28T10:37:25;10.37;;;1.13;;
68449;SDS011;67758;39.572;2.652;2023-02-28T10:39:52;9.43;;;1.20;;
68449;SDS011;67758;39.572;2.652;2023-02-28T10:42:39;4.93;;;0.80;;
68449;SDS011;67758;39.572;2.652;2023-02-28T10:45:14;10.60;;;1.10;;
68449;SDS011;67758;39.572;2.652;2023-02-28T10:48:03;8.03;;;1.07;;
68449;SDS011;67758;39.572;2.652;2023-02-28T10:50:52;7.38;;;1.23;;
68449;SDS011;67758;39.572;2.652;2023-02-28T10:58:48;11.88;;;0.93;;
68449;SDS011;67758;39.572;2.652;2023-02-28T11:01:23;7.70;;;1.30;;
68449;SDS011;67758;39.572;2.652;2023-02-28T11:04:02;8.63;;;0.95;;
68449;SDS011;67758;39.572;2.652;2023-02-28T11:06:41;20.58;;;2.15;;
68449;SDS011;67758;39.572;2.652;2023-02-28T11:09:16;7.65;;;1.00;;
68449;SDS011;67758;39.572;2.652;2023-02-28T11:11:50;10.57;;;0.73;;
68449;SDS011;67758;39.572;2.652;2023-02-28T11:16:49;15.52;;;1.42;;
68449;SDS011;67758;39.572;2.652;2023-02-28T11:19:26;10.25;;;1.63;;
68449;SDS011;67758;39.572;2.652;2023-02-28T11:21:56;5.43;;;0.65;;
68449;SDS011;67758;39.572;2.652;2023-02-28T11:24:40;5.83;;;0.87;;
68449;SDS011;67758;39.572;2.652;2023-02-28T11:29:56;7.63;;;0.85;;
68449;SDS011;67758;39.572;2.652;2023-02-28T11:32:23;3.53;;;0.28;;
68449;SDS011;67758;39.572;2.652;2023-02-28T11:37:39;6.73;;;1.03;;
68449;SDS011;67758;39.572;2.652;2023-02-28T11:40:15;7.57;;;0.90;;
68449;SDS011;67758;39.572;2.652;2023-02-28T11:43:00;10.45;;;0.82;;
68449;SDS011;67758;39.572;2.652;2023-02-28T11:45:55;27.90;;;1.13;;
68449;SDS011;67758;39.572;2.652;2023-02-28T11:51:32;6.68;;;0.60;;
68449;SDS011;67758;39.572;2.652;2023-02-28T12:05:28;9.32;;;1.13;;
68449;SDS011;67758;39.572;2.652;2023-02-28T12:11:27;7.80;;;1.33;;
68449;SDS011;67758;39.572;2.652;2023-02-28T12:22:12;7.70;;;0.90;;
68449;SDS011;67758;39.572;2.652;2023-02-28T12:27:40;5.10;;;0.53;;
68449;SDS011;67758;39.572;2.652;2023-02-28T12:32:56;7.60;;;0.88;;
68449;SDS011;67758;39.572;2.652;2023-02-28T12:35:32;6.30;;;0.73;;
68449;SDS011;67758;39.572;2.652;2023-02-28T12:38:05;6.45;;;0.68;;
68449;SDS011;67758;39.572;2.652;2023-02-28T12:40:42;3.93;;;0.50;;
68449;SDS011;67758;39.572;2.652;2023-02-28T12:43:22;9.43;;;1.08;;
68449;SDS011;67758;39.572;2.652;2023-02-28T12:46:00;9.32;;;0.88;;
68449;SDS011;67758;39.572;2.652;2023-02-28T12:48:40;6.57;;;0.60;;
68449;SDS011;67758;39.572;2.652;2023-02-28T12:51:09;17.20;;;1.33;;
68449;SDS011;67758;39.572;2.652;2023-02-28T12:59:18;8.02;;;0.65;;
68449;SDS011;67758;39.572;2.652;2023-02-28T13:10:04;11.93;;;1.75;;
68449;SDS011;67758;39.572;2.652;2023-02-28T13:12:32;8.77;;;1.10;;
68449;SDS011;67758;39.572;2.652;2023-02-28T13:17:49;11.38;;;1.60;;
68449;SDS011;67758;39.572;2.652;2023-02-28T13:20:23;8.90;;;1.07;;
68449;SDS011;67758;39.572;2.652;2023-02-28T13:22:52;3.53;;;0.68;;
68449;SDS011;67758;39.572;2.652;2023-02-28T13:27:54;9.35;;;0.98;;
68449;SDS011;67758;39.572;2.652;2023-02-28T13:33:35;6.80;;;0.60;;
68449;SDS011;67758;39.572;2.652;2023-02-28T13:38:44;8.75;;;1.38;;
68449;SDS011;67758;39.572;2.652;2023-02-28T13:44:03;7.68;;;1.00;;
68449;SDS011;67758;39.572;2.652;2023-02-28T13:46:32;6.70;;;0.97;;
68449;SDS011;67758;39.572;2.652;2023-02-28T14:02:32;6.63;;;1.00;;
68449;SDS011;67758;39.572;2.652;2023-02-28T14:05:16;8.73;;;1.40;;
68449;SDS011;67758;39.572;2.652;2023-02-28T14:07:47;12.30;;;1.73;;
68449;SDS011;67758;39.572;2.652;2023-02-28T14:10:39;5.50;;;1.00;;
68449;SDS011;67758;39.572;2.652;2023-02-28T14:15:59;7.78;;;1.58;;
68449;SDS011;67758;39.572;2.652;2023-02-28T14:18:30;11.60;;;1.58;;
68449;SDS011;67758;39.572;2.652;2023-02-28T14:21:13;11.55;;;1.45;;
68449;SDS011;67758;39.572;2.652;2023-02-28T14:32:06;5.18;;;0.82;;
68449;SDS011;67758;39.572;2.652;2023-02-28T14:34:50;8.40;;;1.20;;
68449;SDS011;67758;39.572;2.652;2023-02-28T14:37:30;4.83;;;0.70;;
68449;SDS011;67758;39.572;2.652;2023-02-28T14:40:01;7.72;;;0.90;;
68449;SDS011;67758;39.572;2.652;2023-02-28T14:42:34;15.48;;;1.10;;
68449;SDS011;67758;39.572;2.652;2023-02-28T14:45:05;5.55;;;0.52;;
68449;SDS011;67758;39.572;2.652;2023-02-28T14:47:31;6.22;;;0.70;;
68449;SDS011;67758;39.572;2.652;2023-02-28T14:50:00;6.73;;;0.87;;
68449;SDS011;67758;39.572;2.652;2023-02-28T14:52:29;8.25;;;1.23;;
68449;SDS011;67758;39.572;2.652;2023-02-28T14:54:57;6.55;;;0.95;;
68449;SDS011;67758;39.572;2.652;2023-02-28T14:57:29;5.03;;;0.95;;
68449;SDS011;67758;39.572;2.652;2023-02-28T15:00:17;10.65;;;1.58;;
68449;SDS011;67758;39.572;2.652;2023-02-28T15:02:45;4.90;;;0.90;;
68449;SDS011;67758;39.572;2.652;2023-02-28T15:07:46;7.55;;;0.90;;
68449;SDS011;67758;39.572;2.652;2023-02-28T15:10:20;11.17;;;1.33;;
68449;SDS011;67758;39.572;2.652;2023-02-28T15:12:52;5.18;;;0.70;;
68449;SDS011;67758;39.572;2.652;2023-02-28T15:15:19;12.10;;;1.30;;
68449;SDS011;67758;39.572;2.652;2023-02-28T15:17:46;6.50;;;0.82;;
68449;SDS011;67758;39.572;2.652;2023-02-28T15:20:17;10.70;;;1.38;;
68449;SDS011;67758;39.572;2.652;2023-02-28T15:22:44;6.17;;;1.30;;
68449;SDS011;67758;39.572;2.652;2023-02-28T15:25:13;9.45;;;0.80;;
68449;SDS011;67758;39.572;2.652;2023-02-28T15:27:47;6.30;;;0.70;;
68449;SDS011;67758;39.572;2.652;2023-02-28T15:30:20;5.93;;;0.70;;
68449;SDS011;67758;39.572;2.652;2023-02-28T15:33:03;5.47;;;1.00;;
68449;SDS011;67758;39.572;2.652;2023-02-28T15:35:44;10.33;;;1.00;;
68449;SDS011;67758;39.572;2.652;2023-02-28T15:38:17;6.72;;;0.90;;
68449;SDS011;67758;39.572;2.652;2023-02-28T15:40:50;21.35;;;2.00;;
68449;SDS011;67758;39.572;2.652;2023-02-28T15:43:29;7.57;;;0.90;;
68449;SDS011;67758;39.572;2.652;2023-02-28T15:46:04;11.02;;;1.90;;
68449;SDS011;67758;39.572;2.652;2023-02-28T15:53:44;8.00;;;0.90;;
68449;SDS011;67758;39.572;2.652;2023-02-28T15:56:20;7.10;;;1.03;;
68449;SDS011;67758;39.572;2.652;2023-02-28T15:58:49;8.15;;;1.10;;
68449;SDS011;67758;39.572;2.652;2023-02-28T16:01:34;8.02;;;1.33;;
68449;SDS011;67758;39.572;2.652;2023-02-28T16:05:43;7.10;;;0.98;;
68449;SDS011;67758;39.572;2.652;2023-02-28T17:06:55;5.88;;;1.00;;
68449;SDS011;67758;39.572;2.652;2023-02-28T17:09:21;5.60;;;0.63;;
68449;SDS011;67758;39.572;2.652;2023-02-28T17:11:51;4.17;;;0.70;;
68449;SDS011;67758;39.572;2.652;2023-02-28T17:14:16;7.50;;;1.25;;
68449;SDS011;67758;39.572;2.652;2023-02-28T17:16:42;8.05;;;0.60;;
68449;SDS011;67758;39.572;2.652;2023-02-28T17:19:12;6.78;;;0.70;;
68449;SDS011;67758;39.572;2.652;2023-02-28T17:21:42;9.30;;;1.17;;
68449;SDS011;67758;39.572;2.652;2023-02-28T17:24:09;8.35;;;0.80;;
68449;SDS011;67758;39.572;2.652;2023-02-28T17:26:37;8.52;;;0.77;;
68449;SDS011;67758;39.572;2.652;2023-02-28T17:29:14;7.47;;;0.73;;
68449;SDS011;67758;39.572;2.652;2023-02-28T17:31:42;19.92;;;1.70;;
68449;SDS011;67758;39.572;2.652;2023-02-28T17:34:09;8.40;;;1.17;;
68449;SDS011;67758;39.572;2.652;2023-02-28T17:36:34;7.03;;;0.90;;
68449;SDS011;67758;39.572;2.652;2023-02-28T17:39:05;8.15;;;1.27;;
68449;SDS011;67758;39.572;2.652;2023-02-28T17:41:36;10.27;;;1.00;;
68449;SDS011;67758;39.572;2.652;2023-02-28T17:44:02;6.43;;;1.30;;
68449;SDS011;67758;39.572;2.652;2023-02-28T17:46:27;4.90;;;0.60;;
68449;SDS011;67758;39.572;2.652;2023-02-28T17:48:53;6.90;;;1.00;;
68449;SDS011;67758;39.572;2.652;2023-02-28T17:51:21;5.57;;;0.93;;
68449;SDS011;67758;39.572;2.652;2023-02-28T17:53:49;6.00;;;1.00;;
68449;SDS011;67758;39.572;2.652;2023-02-28T17:56:17;10.40;;;1.80;;
68449;SDS011;67758;39.572;2.652;2023-02-28T17:58:48;7.72;;;1.00;;
68449;SDS011;67758;39.572;2.652;2023-02-28T18:01:15;11.52;;;1.30;;
68449;SDS011;67758;39.572;2.652;2023-02-28T18:03:41;12.05;;;2.10;;
68449;SDS011;67758;39.572;2.652;2023-02-28T18:06:11;5.20;;;0.73;;
68449;SDS011;67758;39.572;2.652;2023-02-28T18:08:41;9.52;;;1.48;;
68449;SDS011;67758;39.572;2.652;2023-02-28T18:11:07;7.03;;;0.90;;
68449;SDS011;67758;39.572;2.652;2023-02-28T18:13:42;8.05;;;1.33;;
68449;SDS011;67758;39.572;2.652;2023-02-28T18:16:12;8.57;;;1.57;;
68449;SDS011;67758;39.572;2.652;2023-02-28T18:18:39;8.45;;;0.93;;
68449;SDS011;67758;39.572;2.652;2023-02-28T18:21:05;14.18;;;2.25;;
68449;SDS011;67758;39.572;2.652;2023-02-28T18:23:31;11.93;;;1.92;;
68449;SDS011;67758;39.572;2.652;2023-02-28T18:25:57;12.30;;;1.77;;
68449;SDS011;67758;39.572;2.652;2023-02-28T18:28:23;11.10;;;1.42;;
68449;SDS011;67758;39.572;2.652;2023-02-28T18:30:49;9.63;;;1.15;;
68449;SDS011;67758;39.572;2.652;2023-02-28T18:33:15;10.53;;;1.57;;
68449;SDS011;67758;39.572;2.652;2023-02-28T18:35:41;14.27;;;1.90;;
68449;SDS011;67758;39.572;2.652;2023-02-28T18:38:14;11.85;;;1.70;;
68449;SDS011;67758;39.572;2.652;2023-02-28T18:40:48;13.00;;;2.55;;
68449;SDS011;67758;39.572;2.652;2023-02-28T18:43:18;12.40;;;2.60;;
68449;SDS011;67758;39.572;2.652;2023-02-28T18:45:44;11.85;;;1.85;;
68449;SDS011;67758;39.572;2.652;2023-02-28T18:48:09;15.77;;;2.47;;
68449;SDS011;67758;39.572;2.652;2023-02-28T18:50:38;14.97;;;1.93;;